VTSP Airport Information

Runway Information
Runway 09 Length 9843 ft width 148 ft
Elevation 19 ft Threshold 0 ft Heading 85
Runway 27 Length 9843 ft Width 148 ft
Elevation 82 ft Threshold 0 ft Heading 265
Airport Frequencies
Type APP Name APP Frequency 124.7 MHZ
Type ATIS Name ATIS Frequency 128 MHZ
Type GND Name GND Frequency 121.9 MHZ
Type TWR Name TWR Frequency 118.1 MHZ
Airport Navaids
Type NDB Name Phuket Frequency 360 KHZ
Type VOR-DME Name Phuket Frequency 116900 KHZ
Airport Weather Information & NOTAM
ADDS - METARS form results

(1456 UTC 22 July 2018)
 
METAR text: VTSP 221430Z VRB03KT 8000 FEW020 28/24 Q1012 NOSIG
Conditions at: VTSP (PHUKET INTL AIRP, TH) observed 1430 UTC 22 July 2018
Temperature: 28.0°C (82°F)
Dewpoint: 24.0°C (75°F) [RH = 79%]
Pressure (altimeter): 29.88 inches Hg (1012.0 mb)
Winds: variable direction winds at 3 MPH (3 knots; 1.6 m/s)
Visibility: 5 miles (8 km)
Ceiling: at least 12,000 feet AGL
Clouds: few clouds at 2000 feet AGL
Weather: no significant weather observed at this time

METAR text: VTSP 221400Z VRB06KT 8000 FEW020 28/23 Q1012 NOSIG
Conditions at: VTSP (PHUKET INTL AIRP, TH) observed 1400 UTC 22 July 2018
Temperature: 28.0°C (82°F)
Dewpoint: 23.0°C (73°F) [RH = 74%]
Pressure (altimeter): 29.88 inches Hg (1012.0 mb)
Winds: variable direction winds at 7 MPH (6 knots; 3.1 m/s)
Visibility: 5 miles (8 km)
Ceiling: at least 12,000 feet AGL
Clouds: few clouds at 2000 feet AGL
Weather: no significant weather observed at this time